sensor_id;sensor_type;location;lat;lon;timestamp;temperature;humidity
12089;DHT22;6107;49.078;8.578;2024-02-04T00:00:30;8.30;99.90
12089;DHT22;6107;49.078;8.578;2024-02-04T00:02:56;8.20;99.90
12089;DHT22;6107;49.078;8.578;2024-02-04T00:05:22;8.30;99.90
12089;DHT22;6107;49.078;8.578;2024-02-04T00:07:47;8.20;99.90
12089;DHT22;6107;49.078;8.578;2024-02-04T00:10:13;8.20;99.90
12089;DHT22;6107;49.078;8.578;2024-02-04T00:12:41;8.20;99.90
12089;DHT22;6107;49.078;8.578;2024-02-04T00:15:07;8.20;99.90
12089;DHT22;6107;49.078;8.578;2024-02-04T00:17:33;8.20;99.90
12089;DHT22;6107;49.078;8.578;2024-02-04T00:20:00;8.20;99.90
12089;DHT22;6107;49.078;8.578;2024-02-04T00:22:27;8.20;99.90
12089;DHT22;6107;49.078;8.578;2024-02-04T00:24:52;8.30;99.90
12089;DHT22;6107;49.078;8.578;2024-02-04T00:27:18;8.30;99.90
12089;DHT22;6107;49.078;8.578;2024-02-04T00:29:43;8.20;99.90
12089;DHT22;6107;49.078;8.578;2024-02-04T00:32:09;8.20;99.90
12089;DHT22;6107;49.078;8.578;2024-02-04T00:34:35;8.30;99.90
12089;DHT22;6107;49.078;8.578;2024-02-04T00:37:00;8.30;99.90
12089;DHT22;6107;49.078;8.578;2024-02-04T00:39:26;8.30;99.90
12089;DHT22;6107;49.078;8.578;2024-02-04T00:41:52;8.30;99.90
12089;DHT22;6107;49.078;8.578;2024-02-04T00:44:17;8.30;99.90
12089;DHT22;6107;49.078;8.578;2024-02-04T00:46:44;8.30;99.90
12089;DHT22;6107;49.078;8.578;2024-02-04T00:49:09;8.40;99.90
12089;DHT22;6107;49.078;8.578;2024-02-04T00:51:35;8.40;99.90
12089;DHT22;6107;49.078;8.578;2024-02-04T00:54:01;8.40;99.90
12089;DHT22;6107;49.078;8.578;2024-02-04T00:56:27;8.40;99.90
12089;DHT22;6107;49.078;8.578;2024-02-04T00:58:52;8.40;99.90
12089;DHT22;6107;49.078;8.578;2024-02-04T01:01:18;8.40;99.90
12089;DHT22;6107;49.078;8.578;2024-02-04T01:03:45;8.40;99.90
12089;DHT22;6107;49.078;8.578;2024-02-04T01:06:11;8.50;99.90
12089;DHT22;6107;49.078;8.578;2024-02-04T01:08:37;8.40;99.90
12089;DHT22;6107;49.078;8.578;2024-02-04T01:11:06;8.40;99.90
12089;DHT22;6107;49.078;8.578;2024-02-04T01:13:32;8.40;99.90
12089;DHT22;6107;49.078;8.578;2024-02-04T01:15:58;8.40;99.90
12089;DHT22;6107;49.078;8.578;2024-02-04T01:18:24;8.40;99.90
12089;DHT22;6107;49.078;8.578;2024-02-04T01:20:49;8.50;99.90
12089;DHT22;6107;49.078;8.578;2024-02-04T01:23:15;8.50;99.90
12089;DHT22;6107;49.078;8.578;2024-02-04T01:25:44;8.50;99.90
12089;DHT22;6107;49.078;8.578;2024-02-04T01:28:10;8.50;99.90
12089;DHT22;6107;49.078;8.578;2024-02-04T01:30:35;8.50;99.90
12089;DHT22;6107;49.078;8.578;2024-02-04T01:33:02;8.40;99.90
12089;DHT22;6107;49.078;8.578;2024-02-04T01:35:28;8.40;99.90
12089;DHT22;6107;49.078;8.578;2024-02-04T01:37:54;8.40;99.90
12089;DHT22;6107;49.078;8.578;2024-02-04T01:40:19;8.50;99.90
12089;DHT22;6107;49.078;8.578;2024-02-04T01:42:45;8.50;99.90
12089;DHT22;6107;49.078;8.578;2024-02-04T01:45:11;8.40;99.90
12089;DHT22;6107;49.078;8.578;2024-02-04T01:47:37;8.50;99.90
12089;DHT22;6107;49.078;8.578;2024-02-04T01:50:03;8.50;99.90
12089;DHT22;6107;49.078;8.578;2024-02-04T01:52:33;8.50;99.90
12089;DHT22;6107;49.078;8.578;2024-02-04T01:55:00;8.50;99.90
12089;DHT22;6107;49.078;8.578;2024-02-04T01:57:27;8.50;99.90
12089;DHT22;6107;49.078;8.578;2024-02-04T01:59:53;8.40;99.90
12089;DHT22;6107;49.078;8.578;2024-02-04T02:02:20;8.40;99.90
12089;DHT22;6107;49.078;8.578;2024-02-04T02:04:46;8.40;99.90
12089;DHT22;6107;49.078;8.578;2024-02-04T02:07:13;8.40;99.90
12089;DHT22;6107;49.078;8.578;2024-02-04T02:09:40;8.40;99.90
12089;DHT22;6107;49.078;8.578;2024-02-04T02:12:16;8.40;99.90
12089;DHT22;6107;49.078;8.578;2024-02-04T02:14:46;8.40;99.90
12089;DHT22;6107;49.078;8.578;2024-02-04T02:17:16;8.40;99.90
12089;DHT22;6107;49.078;8.578;2024-02-04T02:20:02;8.40;99.90
12089;DHT22;6107;49.078;8.578;2024-02-04T02:22:50;8.40;99.90
12089;DHT22;6107;49.078;8.578;2024-02-04T02:25:20;8.40;99.90
12089;DHT22;6107;49.078;8.578;2024-02-04T02:27:50;8.40;99.90
12089;DHT22;6107;49.078;8.578;2024-02-04T02:30:16;8.30;99.90
12089;DHT22;6107;49.078;8.578;2024-02-04T02:32:46;8.30;99.90
12089;DHT22;6107;49.078;8.578;2024-02-04T02:35:16;8.30;99.90
12089;DHT22;6107;49.078;8.578;2024-02-04T02:40:51;8.30;99.90
12089;DHT22;6107;49.078;8.578;2024-02-04T02:43:19;8.30;99.90
12089;DHT22;6107;49.078;8.578;2024-02-04T02:45:45;8.30;99.90
12089;DHT22;6107;49.078;8.578;2024-02-04T02:48:11;8.30;99.90
12089;DHT22;6107;49.078;8.578;2024-02-04T02:50:37;8.30;99.90
12089;DHT22;6107;49.078;8.578;2024-02-04T02:53:04;8.30;99.90
12089;DHT22;6107;49.078;8.578;2024-02-04T02:55:29;8.30;99.90
12089;DHT22;6107;49.078;8.578;2024-02-04T02:57:55;8.30;99.90
12089;DHT22;6107;49.078;8.578;2024-02-04T03:00:21;8.30;99.90
12089;DHT22;6107;49.078;8.578;2024-02-04T03:02:47;8.30;99.90
12089;DHT22;6107;49.078;8.578;2024-02-04T03:05:13;8.30;99.90
12089;DHT22;6107;49.078;8.578;2024-02-04T03:07:40;8.30;99.90
12089;DHT22;6107;49.078;8.578;2024-02-04T03:10:06;8.30;99.90
12089;DHT22;6107;49.078;8.578;2024-02-04T03:12:32;8.40;99.90
12089;DHT22;6107;49.078;8.578;2024-02-04T03:14:57;8.30;99.90
12089;DHT22;6107;49.078;8.578;2024-02-04T03:17:23;8.30;99.90
12089;DHT22;6107;49.078;8.578;2024-02-04T03:19:49;8.30;99.90
12089;DHT22;6107;49.078;8.578;2024-02-04T03:22:17;8.30;99.90
12089;DHT22;6107;49.078;8.578;2024-02-04T03:24:43;8.30;99.90
12089;DHT22;6107;49.078;8.578;2024-02-04T03:27:08;8.30;99.90
12089;DHT22;6107;49.078;8.578;2024-02-04T03:29:34;8.30;99.90
12089;DHT22;6107;49.078;8.578;2024-02-04T03:32:00;8.30;99.90
12089;DHT22;6107;49.078;8.578;2024-02-04T03:34:25;8.30;99.90
12089;DHT22;6107;49.078;8.578;2024-02-04T03:36:51;8.40;99.90
12089;DHT22;6107;49.078;8.578;2024-02-04T03:39:17;8.30;99.90
12089;DHT22;6107;49.078;8.578;2024-02-04T03:41:42;8.40;99.90
12089;DHT22;6107;49.078;8.578;2024-02-04T03:44:08;8.30;99.90
12089;DHT22;6107;49.078;8.578;2024-02-04T03:46:33;8.40;99.90
12089;DHT22;6107;49.078;8.578;2024-02-04T03:48:59;8.40;99.90
12089;DHT22;6107;49.078;8.578;2024-02-04T03:51:24;8.30;99.90
12089;DHT22;6107;49.078;8.578;2024-02-04T03:53:50;8.30;99.90
12089;DHT22;6107;49.078;8.578;2024-02-04T03:56:17;8.30;99.90
12089;DHT22;6107;49.078;8.578;2024-02-04T03:58:43;8.30;99.90
12089;DHT22;6107;49.078;8.578;2024-02-04T04:01:12;8.30;99.90
12089;DHT22;6107;49.078;8.578;2024-02-04T04:03:42;8.40;99.90
12089;DHT22;6107;49.078;8.578;2024-02-04T04:06:11;8.40;99.90
12089;DHT22;6107;49.078;8.578;2024-02-04T04:08:37;8.30;99.90
12089;DHT22;6107;49.078;8.578;2024-02-04T04:11:03;8.30;99.90
12089;DHT22;6107;49.078;8.578;2024-02-04T04:13:29;8.30;99.90
12089;DHT22;6107;49.078;8.578;2024-02-04T04:15:55;8.30;99.90
12089;DHT22;6107;49.078;8.578;2024-02-04T04:18:21;8.30;99.90
12089;DHT22;6107;49.078;8.578;2024-02-04T04:20:46;8.30;99.90
12089;DHT22;6107;49.078;8.578;2024-02-04T04:23:12;8.30;99.90
12089;DHT22;6107;49.078;8.578;2024-02-04T04:25:38;8.20;99.90
12089;DHT22;6107;49.078;8.578;2024-02-04T04:28:04;8.10;99.90
12089;DHT22;6107;49.078;8.578;2024-02-04T04:30:29;8.20;99.90
12089;DHT22;6107;49.078;8.578;2024-02-04T04:32:56;8.10;99.90
12089;DHT22;6107;49.078;8.578;2024-02-04T04:35:22;8.10;99.90
12089;DHT22;6107;49.078;8.578;2024-02-04T04:37:47;8.10;99.90
12089;DHT22;6107;49.078;8.578;2024-02-04T04:40:13;8.10;99.90
12089;DHT22;6107;49.078;8.578;2024-02-04T04:42:38;8.00;99.90
12089;DHT22;6107;49.078;8.578;2024-02-04T04:45:04;8.00;99.90
12089;DHT22;6107;49.078;8.578;2024-02-04T04:47:30;8.00;99.90
12089;DHT22;6107;49.078;8.578;2024-02-04T04:49:56;8.00;99.90
12089;DHT22;6107;49.078;8.578;2024-02-04T04:52:21;8.00;99.90
12089;DHT22;6107;49.078;8.578;2024-02-04T04:54:47;8.00;99.90
12089;DHT22;6107;49.078;8.578;2024-02-04T04:57:13;8.00;99.90
12089;DHT22;6107;49.078;8.578;2024-02-04T04:59:39;7.90;99.90
12089;DHT22;6107;49.078;8.578;2024-02-04T05:02:05;7.90;99.90
12089;DHT22;6107;49.078;8.578;2024-02-04T05:04:31;7.90;99.90
12089;DHT22;6107;49.078;8.578;2024-02-04T05:06:56;7.90;99.90
12089;DHT22;6107;49.078;8.578;2024-02-04T05:09:22;7.90;99.90
12089;DHT22;6107;49.078;8.578;2024-02-04T05:11:47;7.90;99.90
12089;DHT22;6107;49.078;8.578;2024-02-04T05:14:13;7.90;99.90
12089;DHT22;6107;49.078;8.578;2024-02-04T05:16:39;7.90;99.90
12089;DHT22;6107;49.078;8.578;2024-02-04T05:19:04;7.90;99.90
12089;DHT22;6107;49.078;8.578;2024-02-04T05:21:30;7.80;99.90
12089;DHT22;6107;49.078;8.578;2024-02-04T05:23:55;7.90;99.90
12089;DHT22;6107;49.078;8.578;2024-02-04T05:26:21;7.80;99.90
12089;DHT22;6107;49.078;8.578;2024-02-04T05:28:46;7.80;99.90
12089;DHT22;6107;49.078;8.578;2024-02-04T05:31:12;7.80;99.90
12089;DHT22;6107;49.078;8.578;2024-02-04T05:38:30;8.00;99.90
12089;DHT22;6107;49.078;8.578;2024-02-04T05:40:56;8.00;99.90
12089;DHT22;6107;49.078;8.578;2024-02-04T05:43:22;7.90;99.90
12089;DHT22;6107;49.078;8.578;2024-02-04T05:45:47;7.90;99.90
12089;DHT22;6107;49.078;8.578;2024-02-04T05:48:13;7.90;99.90
12089;DHT22;6107;49.078;8.578;2024-02-04T05:50:39;7.90;99.90
12089;DHT22;6107;49.078;8.578;2024-02-04T05:53:04;7.90;99.90
12089;DHT22;6107;49.078;8.578;2024-02-04T05:55:30;7.90;99.90
12089;DHT22;6107;49.078;8.578;2024-02-04T05:57:56;7.90;99.90
12089;DHT22;6107;49.078;8.578;2024-02-04T06:00:22;7.90;99.90
12089;DHT22;6107;49.078;8.578;2024-02-04T06:02:48;7.90;99.90
12089;DHT22;6107;49.078;8.578;2024-02-04T06:05:14;7.90;99.90
12089;DHT22;6107;49.078;8.578;2024-02-04T06:07:42;7.90;99.90
12089;DHT22;6107;49.078;8.578;2024-02-04T06:10:11;7.90;99.90
12089;DHT22;6107;49.078;8.578;2024-02-04T06:12:37;7.90;99.90
12089;DHT22;6107;49.078;8.578;2024-02-04T06:15:11;7.90;99.90
12089;DHT22;6107;49.078;8.578;2024-02-04T06:17:37;7.90;99.90
12089;DHT22;6107;49.078;8.578;2024-02-04T06:20:03;7.90;99.90
12089;DHT22;6107;49.078;8.578;2024-02-04T06:22:29;7.90;99.90
12089;DHT22;6107;49.078;8.578;2024-02-04T06:24:54;7.90;99.90
12089;DHT22;6107;49.078;8.578;2024-02-04T06:27:20;7.90;99.90
12089;DHT22;6107;49.078;8.578;2024-02-04T06:29:46;7.90;99.90
12089;DHT22;6107;49.078;8.578;2024-02-04T06:32:11;7.90;99.90
12089;DHT22;6107;49.078;8.578;2024-02-04T06:34:38;7.90;99.90
12089;DHT22;6107;49.078;8.578;2024-02-04T06:37:04;8.00;99.90
12089;DHT22;6107;49.078;8.578;2024-02-04T06:39:29;7.90;99.90
12089;DHT22;6107;49.078;8.578;2024-02-04T06:41:55;7.90;99.90
12089;DHT22;6107;49.078;8.578;2024-02-04T06:44:21;8.00;99.90
12089;DHT22;6107;49.078;8.578;2024-02-04T06:46:46;8.00;99.90
12089;DHT22;6107;49.078;8.578;2024-02-04T06:49:13;8.00;99.90
12089;DHT22;6107;49.078;8.578;2024-02-04T06:51:43;7.90;99.90
12089;DHT22;6107;49.078;8.578;2024-02-04T06:54:10;8.00;99.90
12089;DHT22;6107;49.078;8.578;2024-02-04T06:56:35;8.00;99.90
12089;DHT22;6107;49.078;8.578;2024-02-04T06:59:02;8.00;99.90
12089;DHT22;6107;49.078;8.578;2024-02-04T07:01:28;8.00;99.90
12089;DHT22;6107;49.078;8.578;2024-02-04T07:03:53;8.00;99.90
12089;DHT22;6107;49.078;8.578;2024-02-04T07:06:19;8.00;99.90
12089;DHT22;6107;49.078;8.578;2024-02-04T07:08:44;8.00;99.90
12089;DHT22;6107;49.078;8.578;2024-02-04T07:11:10;8.00;99.90
12089;DHT22;6107;49.078;8.578;2024-02-04T07:13:35;8.00;99.90
12089;DHT22;6107;49.078;8.578;2024-02-04T07:16:01;8.00;99.90
12089;DHT22;6107;49.078;8.578;2024-02-04T07:18:27;8.10;99.90
12089;DHT22;6107;49.078;8.578;2024-02-04T07:20:52;8.20;99.90
12089;DHT22;6107;49.078;8.578;2024-02-04T07:23:18;8.10;99.90
12089;DHT22;6107;49.078;8.578;2024-02-04T07:25:43;8.10;99.90
12089;DHT22;6107;49.078;8.578;2024-02-04T07:28:09;8.10;99.90
12089;DHT22;6107;49.078;8.578;2024-02-04T07:30:35;8.20;99.90
12089;DHT22;6107;49.078;8.578;2024-02-04T07:33:00;8.20;99.90
12089;DHT22;6107;49.078;8.578;2024-02-04T07:35:26;8.20;99.90
12089;DHT22;6107;49.078;8.578;2024-02-04T07:37:51;8.20;99.90
12089;DHT22;6107;49.078;8.578;2024-02-04T07:40:17;8.20;99.90
12089;DHT22;6107;49.078;8.578;2024-02-04T07:42:43;8.20;99.90
12089;DHT22;6107;49.078;8.578;2024-02-04T07:45:08;8.20;99.90
12089;DHT22;6107;49.078;8.578;2024-02-04T07:47:35;8.20;99.90
12089;DHT22;6107;49.078;8.578;2024-02-04T07:50:01;8.20;99.90
12089;DHT22;6107;49.078;8.578;2024-02-04T07:52:26;8.20;99.90
12089;DHT22;6107;49.078;8.578;2024-02-04T07:54:52;8.20;99.90
12089;DHT22;6107;49.078;8.578;2024-02-04T07:57:17;8.20;99.90
12089;DHT22;6107;49.078;8.578;2024-02-04T07:59:43;8.20;99.90
12089;DHT22;6107;49.078;8.578;2024-02-04T08:02:09;8.20;99.90
12089;DHT22;6107;49.078;8.578;2024-02-04T08:04:34;8.20;99.90
12089;DHT22;6107;49.078;8.578;2024-02-04T08:07:00;8.20;99.90
12089;DHT22;6107;49.078;8.578;2024-02-04T08:09:26;8.20;99.90
12089;DHT22;6107;49.078;8.578;2024-02-04T08:11:51;8.20;99.90
12089;DHT22;6107;49.078;8.578;2024-02-04T08:14:17;8.20;99.90
12089;DHT22;6107;49.078;8.578;2024-02-04T08:16:43;8.30;99.90
12089;DHT22;6107;49.078;8.578;2024-02-04T08:19:11;8.40;99.90
12089;DHT22;6107;49.078;8.578;2024-02-04T08:21:37;8.30;99.90
12089;DHT22;6107;49.078;8.578;2024-02-04T08:24:02;8.30;99.90
12089;DHT22;6107;49.078;8.578;2024-02-04T08:26:28;8.30;99.90
12089;DHT22;6107;49.078;8.578;2024-02-04T08:28:54;8.30;99.90
12089;DHT22;6107;49.078;8.578;2024-02-04T08:31:19;8.40;99.90
12089;DHT22;6107;49.078;8.578;2024-02-04T08:33:45;8.40;99.90
12089;DHT22;6107;49.078;8.578;2024-02-04T08:36:11;8.40;99.90
12089;DHT22;6107;49.078;8.578;2024-02-04T08:38:37;8.50;99.90
12089;DHT22;6107;49.078;8.578;2024-02-04T08:41:06;8.50;99.90
12089;DHT22;6107;49.078;8.578;2024-02-04T08:43:32;8.50;99.90
12089;DHT22;6107;49.078;8.578;2024-02-04T08:45:58;8.40;99.90
12089;DHT22;6107;49.078;8.578;2024-02-04T08:48:23;8.40;99.90
12089;DHT22;6107;49.078;8.578;2024-02-04T08:50:49;8.40;99.90
12089;DHT22;6107;49.078;8.578;2024-02-04T08:53:15;8.50;99.90
12089;DHT22;6107;49.078;8.578;2024-02-04T08:55:40;8.50;99.90
12089;DHT22;6107;49.078;8.578;2024-02-04T08:58:06;8.50;99.90
12089;DHT22;6107;49.078;8.578;2024-02-04T09:00:31;8.50;99.90
12089;DHT22;6107;49.078;8.578;2024-02-04T09:02:57;8.50;99.90
12089;DHT22;6107;49.078;8.578;2024-02-04T09:05:23;8.60;99.90
12089;DHT22;6107;49.078;8.578;2024-02-04T09:07:48;8.60;99.90
12089;DHT22;6107;49.078;8.578;2024-02-04T09:10:14;8.60;99.90
12089;DHT22;6107;49.078;8.578;2024-02-04T09:12:40;8.70;99.90
12089;DHT22;6107;49.078;8.578;2024-02-04T09:15:05;8.80;99.90
12089;DHT22;6107;49.078;8.578;2024-02-04T09:17:31;8.80;99.90
12089;DHT22;6107;49.078;8.578;2024-02-04T09:20:00;8.80;99.90
12089;DHT22;6107;49.078;8.578;2024-02-04T09:22:26;8.80;99.90
12089;DHT22;6107;49.078;8.578;2024-02-04T09:24:52;8.80;99.90
12089;DHT22;6107;49.078;8.578;2024-02-04T09:27:17;8.90;99.90
12089;DHT22;6107;49.078;8.578;2024-02-04T09:29:43;9.00;99.90
12089;DHT22;6107;49.078;8.578;2024-02-04T09:32:09;9.00;99.90
12089;DHT22;6107;49.078;8.578;2024-02-04T09:34:34;9.00;99.90
12089;DHT22;6107;49.078;8.578;2024-02-04T09:37:00;9.00;99.90
12089;DHT22;6107;49.078;8.578;2024-02-04T09:39:26;9.20;99.90
12089;DHT22;6107;49.078;8.578;2024-02-04T09:41:52;8.90;99.90
12089;DHT22;6107;49.078;8.578;2024-02-04T09:44:19;9.10;99.90
12089;DHT22;6107;49.078;8.578;2024-02-04T09:46:46;9.00;99.90
12089;DHT22;6107;49.078;8.578;2024-02-04T09:49:12;9.00;99.90
12089;DHT22;6107;49.078;8.578;2024-02-04T09:51:39;8.90;99.90
12089;DHT22;6107;49.078;8.578;2024-02-04T09:54:05;8.90;99.90
12089;DHT22;6107;49.078;8.578;2024-02-04T09:56:34;9.00;99.90
12089;DHT22;6107;49.078;8.578;2024-02-04T09:59:01;9.10;99.90
12089;DHT22;6107;49.078;8.578;2024-02-04T10:01:26;9.10;99.90
12089;DHT22;6107;49.078;8.578;2024-02-04T10:03:52;9.10;99.90
12089;DHT22;6107;49.078;8.578;2024-02-04T10:06:18;9.10;99.90
12089;DHT22;6107;49.078;8.578;2024-02-04T10:08:43;9.10;99.90
12089;DHT22;6107;49.078;8.578;2024-02-04T10:11:10;9.10;99.90
12089;DHT22;6107;49.078;8.578;2024-02-04T10:13:44;9.10;99.90
12089;DHT22;6107;49.078;8.578;2024-02-04T10:16:11;9.10;99.90
12089;DHT22;6107;49.078;8.578;2024-02-04T10:18:37;9.00;99.90
12089;DHT22;6107;49.078;8.578;2024-02-04T10:21:20;9.10;99.90
12089;DHT22;6107;49.078;8.578;2024-02-04T10:23:47;9.00;99.90
12089;DHT22;6107;49.078;8.578;2024-02-04T10:26:13;9.00;99.90
12089;DHT22;6107;49.078;8.578;2024-02-04T10:28:39;8.90;99.90
12089;DHT22;6107;49.078;8.578;2024-02-04T10:31:09;8.90;99.90
12089;DHT22;6107;49.078;8.578;2024-02-04T10:33:35;9.10;99.90
12089;DHT22;6107;49.078;8.578;2024-02-04T10:36:01;9.10;99.90
12089;DHT22;6107;49.078;8.578;2024-02-04T10:38:27;9.20;99.90
12089;DHT22;6107;49.078;8.578;2024-02-04T10:40:54;9.00;99.90
12089;DHT22;6107;49.078;8.578;2024-02-04T10:43:20;9.10;99.90
12089;DHT22;6107;49.078;8.578;2024-02-04T10:45:47;9.10;99.90
12089;DHT22;6107;49.078;8.578;2024-02-04T10:48:15;9.10;99.90
12089;DHT22;6107;49.078;8.578;2024-02-04T10:50:46;9.00;99.90
12089;DHT22;6107;49.078;8.578;2024-02-04T10:53:14;8.80;99.90
12089;DHT22;6107;49.078;8.578;2024-02-04T10:55:41;9.00;99.90
12089;DHT22;6107;49.078;8.578;2024-02-04T10:58:12;9.00;99.90
12089;DHT22;6107;49.078;8.578;2024-02-04T11:00:40;9.00;99.90
12089;DHT22;6107;49.078;8.578;2024-02-04T11:03:06;9.00;99.90
12089;DHT22;6107;49.078;8.578;2024-02-04T11:05:33;9.00;99.90
12089;DHT22;6107;49.078;8.578;2024-02-04T11:08:02;8.90;99.90
12089;DHT22;6107;49.078;8.578;2024-02-04T11:10:30;8.90;99.90
12089;DHT22;6107;49.078;8.578;2024-02-04T11:12:58;8.90;99.90
12089;DHT22;6107;49.078;8.578;2024-02-04T11:15:28;8.90;99.90
12089;DHT22;6107;49.078;8.578;2024-02-04T11:18:29;8.90;99.90
12089;DHT22;6107;49.078;8.578;2024-02-04T11:26:43;9.10;99.90
12089;DHT22;6107;49.078;8.578;2024-02-04T11:29:10;9.00;99.90
12089;DHT22;6107;49.078;8.578;2024-02-04T11:31:38;9.20;99.90
12089;DHT22;6107;49.078;8.578;2024-02-04T11:34:05;9.20;99.90
12089;DHT22;6107;49.078;8.578;2024-02-04T11:36:38;9.10;99.90
12089;DHT22;6107;49.078;8.578;2024-02-04T11:39:14;9.20;99.90
12089;DHT22;6107;49.078;8.578;2024-02-04T11:41:50;9.20;99.90
12089;DHT22;6107;49.078;8.578;2024-02-04T11:44:26;9.30;99.90
12089;DHT22;6107;49.078;8.578;2024-02-04T11:46:52;9.30;99.90
12089;DHT22;6107;49.078;8.578;2024-02-04T11:49:24;9.30;99.90
12089;DHT22;6107;49.078;8.578;2024-02-04T11:51:51;9.40;99.90
12089;DHT22;6107;49.078;8.578;2024-02-04T11:54:18;9.30;99.90
12089;DHT22;6107;49.078;8.578;2024-02-04T11:56:51;9.50;99.90
12089;DHT22;6107;49.078;8.578;2024-02-04T11:59:23;9.50;99.90
12089;DHT22;6107;49.078;8.578;2024-02-04T12:01:53;9.40;99.90
12089;DHT22;6107;49.078;8.578;2024-02-04T12:04:20;9.40;99.90
12089;DHT22;6107;49.078;8.578;2024-02-04T12:06:47;9.40;99.90
12089;DHT22;6107;49.078;8.578;2024-02-04T12:09:16;9.50;99.90
12089;DHT22;6107;49.078;8.578;2024-02-04T12:11:44;9.40;99.90
12089;DHT22;6107;49.078;8.578;2024-02-04T12:14:10;9.50;99.90
12089;DHT22;6107;49.078;8.578;2024-02-04T12:16:36;9.40;99.90
12089;DHT22;6107;49.078;8.578;2024-02-04T12:19:04;9.50;99.90
12089;DHT22;6107;49.078;8.578;2024-02-04T12:21:31;9.50;99.90
12089;DHT22;6107;49.078;8.578;2024-02-04T12:23:58;9.50;99.90
12089;DHT22;6107;49.078;8.578;2024-02-04T12:26:24;9.50;99.90
12089;DHT22;6107;49.078;8.578;2024-02-04T12:28:52;9.50;99.90
12089;DHT22;6107;49.078;8.578;2024-02-04T12:31:19;9.50;99.90
12089;DHT22;6107;49.078;8.578;2024-02-04T12:33:58;9.60;99.90
12089;DHT22;6107;49.078;8.578;2024-02-04T12:36:30;9.60;99.90
12089;DHT22;6107;49.078;8.578;2024-02-04T12:39:01;9.60;99.90
12089;DHT22;6107;49.078;8.578;2024-02-04T12:41:27;9.60;99.90
12089;DHT22;6107;49.078;8.578;2024-02-04T12:43:58;9.60;99.90
12089;DHT22;6107;49.078;8.578;2024-02-04T12:46:25;9.60;99.90
12089;DHT22;6107;49.078;8.578;2024-02-04T12:48:56;9.70;99.90
12089;DHT22;6107;49.078;8.578;2024-02-04T12:51:26;9.70;99.90
12089;DHT22;6107;49.078;8.578;2024-02-04T12:54:07;9.70;99.90
12089;DHT22;6107;49.078;8.578;2024-02-04T12:56:47;9.60;99.90
12089;DHT22;6107;49.078;8.578;2024-02-04T12:59:33;9.50;99.90
12089;DHT22;6107;49.078;8.578;2024-02-04T13:02:05;9.50;99.90
12089;DHT22;6107;49.078;8.578;2024-02-04T13:04:37;9.60;99.90
12089;DHT22;6107;49.078;8.578;2024-02-04T13:07:07;9.60;99.90
12089;DHT22;6107;49.078;8.578;2024-02-04T13:09:35;9.50;99.90
12089;DHT22;6107;49.078;8.578;2024-02-04T13:12:08;9.50;99.90
12089;DHT22;6107;49.078;8.578;2024-02-04T13:14:35;9.50;99.90
12089;DHT22;6107;49.078;8.578;2024-02-04T13:17:02;9.60;99.90
12089;DHT22;6107;49.078;8.578;2024-02-04T13:19:35;9.50;99.90
12089;DHT22;6107;49.078;8.578;2024-02-04T13:22:02;9.60;99.90
12089;DHT22;6107;49.078;8.578;2024-02-04T13:24:30;9.70;99.90
12089;DHT22;6107;49.078;8.578;2024-02-04T13:26:56;9.70;99.90
12089;DHT22;6107;49.078;8.578;2024-02-04T13:29:22;9.70;99.90
12089;DHT22;6107;49.078;8.578;2024-02-04T13:31:47;9.70;99.90
12089;DHT22;6107;49.078;8.578;2024-02-04T13:34:13;9.70;99.90
12089;DHT22;6107;49.078;8.578;2024-02-04T13:36:39;9.80;99.90
12089;DHT22;6107;49.078;8.578;2024-02-04T13:39:04;9.80;99.90
12089;DHT22;6107;49.078;8.578;2024-02-04T13:41:31;9.80;99.90
12089;DHT22;6107;49.078;8.578;2024-02-04T13:43:57;9.80;99.90
12089;DHT22;6107;49.078;8.578;2024-02-04T13:46:23;9.80;99.90
12089;DHT22;6107;49.078;8.578;2024-02-04T13:48:49;9.70;99.90
12089;DHT22;6107;49.078;8.578;2024-02-04T13:51:15;9.70;99.90
12089;DHT22;6107;49.078;8.578;2024-02-04T13:53:40;9.70;99.90
12089;DHT22;6107;49.078;8.578;2024-02-04T13:56:06;9.70;99.90
12089;DHT22;6107;49.078;8.578;2024-02-04T13:58:32;9.70;99.90
12089;DHT22;6107;49.078;8.578;2024-02-04T14:00:57;9.60;99.90
12089;DHT22;6107;49.078;8.578;2024-02-04T14:03:24;9.60;99.90
12089;DHT22;6107;49.078;8.578;2024-02-04T14:05:50;9.60;99.90
12089;DHT22;6107;49.078;8.578;2024-02-04T14:08:16;9.60;99.90
12089;DHT22;6107;49.078;8.578;2024-02-04T14:10:41;9.60;99.90
12089;DHT22;6107;49.078;8.578;2024-02-04T14:13:07;9.60;99.90
12089;DHT22;6107;49.078;8.578;2024-02-04T14:15:32;9.70;99.90
12089;DHT22;6107;49.078;8.578;2024-02-04T14:17:59;9.70;99.90
12089;DHT22;6107;49.078;8.578;2024-02-04T14:20:25;9.70;99.90
12089;DHT22;6107;49.078;8.578;2024-02-04T14:22:51;9.80;99.90
12089;DHT22;6107;49.078;8.578;2024-02-04T14:25:16;9.70;99.90
12089;DHT22;6107;49.078;8.578;2024-02-04T14:27:42;9.70;99.90
12089;DHT22;6107;49.078;8.578;2024-02-04T14:30:08;9.70;99.90
12089;DHT22;6107;49.078;8.578;2024-02-04T14:32:34;9.70;99.90
12089;DHT22;6107;49.078;8.578;2024-02-04T14:35:00;9.70;99.90
12089;DHT22;6107;49.078;8.578;2024-02-04T14:37:26;9.70;99.90
12089;DHT22;6107;49.078;8.578;2024-02-04T14:39:51;9.70;99.90
12089;DHT22;6107;49.078;8.578;2024-02-04T14:42:17;9.60;99.90
12089;DHT22;6107;49.078;8.578;2024-02-04T14:44:44;9.60;99.90
12089;DHT22;6107;49.078;8.578;2024-02-04T14:47:10;9.70;99.90
12089;DHT22;6107;49.078;8.578;2024-02-04T14:49:36;9.60;99.90
12089;DHT22;6107;49.078;8.578;2024-02-04T14:52:03;9.60;99.90
12089;DHT22;6107;49.078;8.578;2024-02-04T14:54:29;9.60;99.90
12089;DHT22;6107;49.078;8.578;2024-02-04T14:56:54;9.60;99.90
12089;DHT22;6107;49.078;8.578;2024-02-04T14:59:20;9.60;99.90
12089;DHT22;6107;49.078;8.578;2024-02-04T15:01:46;9.60;99.90
12089;DHT22;6107;49.078;8.578;2024-02-04T15:04:12;9.60;99.90
12089;DHT22;6107;49.078;8.578;2024-02-04T15:06:39;9.60;99.90
12089;DHT22;6107;49.078;8.578;2024-02-04T15:09:05;9.60;99.90
12089;DHT22;6107;49.078;8.578;2024-02-04T15:11:31;9.60;99.90
12089;DHT22;6107;49.078;8.578;2024-02-04T15:13:58;9.60;99.90
12089;DHT22;6107;49.078;8.578;2024-02-04T15:16:24;9.60;99.90
12089;DHT22;6107;49.078;8.578;2024-02-04T15:18:50;9.60;99.90
12089;DHT22;6107;49.078;8.578;2024-02-04T15:21:16;9.60;99.90
12089;DHT22;6107;49.078;8.578;2024-02-04T15:23:41;9.60;99.90
12089;DHT22;6107;49.078;8.578;2024-02-04T15:26:10;9.60;99.90
12089;DHT22;6107;49.078;8.578;2024-02-04T15:28:37;9.50;99.90
12089;DHT22;6107;49.078;8.578;2024-02-04T15:31:03;9.60;99.90
12089;DHT22;6107;49.078;8.578;2024-02-04T15:33:29;9.60;99.90
12089;DHT22;6107;49.078;8.578;2024-02-04T15:35:55;9.50;99.90
12089;DHT22;6107;49.078;8.578;2024-02-04T15:38:20;9.50;99.90
12089;DHT22;6107;49.078;8.578;2024-02-04T15:40:46;9.50;99.90
12089;DHT22;6107;49.078;8.578;2024-02-04T15:43:12;9.50;99.90
12089;DHT22;6107;49.078;8.578;2024-02-04T15:45:38;9.60;99.90
12089;DHT22;6107;49.078;8.578;2024-02-04T15:48:04;9.60;99.90
12089;DHT22;6107;49.078;8.578;2024-02-04T15:50:31;9.50;99.90
12089;DHT22;6107;49.078;8.578;2024-02-04T15:52:57;9.60;99.90
12089;DHT22;6107;49.078;8.578;2024-02-04T15:55:23;9.50;99.90
12089;DHT22;6107;49.078;8.578;2024-02-04T15:57:51;9.50;99.90
12089;DHT22;6107;49.078;8.578;2024-02-04T16:00:18;9.50;99.90
12089;DHT22;6107;49.078;8.578;2024-02-04T16:02:48;9.50;99.90
12089;DHT22;6107;49.078;8.578;2024-02-04T16:05:15;9.50;99.90
12089;DHT22;6107;49.078;8.578;2024-02-04T16:07:42;9.50;99.90
12089;DHT22;6107;49.078;8.578;2024-02-04T16:10:10;9.50;99.90
12089;DHT22;6107;49.078;8.578;2024-02-04T16:12:36;9.50;99.90